Time;durP1;ratioP1;P1;durP2;ratioP2;P2;SDS_P1;SDS_P2;PMS_P1;PMS_P2;Temp;Humidity;BMP_temperature;BMP_pressure;BME280_temperature;BME280_humidity;BME280_pressure;Samples;Min_cycle;Max_cycle;Signal;HPM_P1;HPM_P2
2023/05/22 00:01:54;;;;;;;6.6;5;;;;;;;13.93;78.02832;934.1613;;;;
2023/05/22 00:04:20;;;;;;;6.5;5.2;;;;;;;13.95;77.78223;934.1523;;;;
2023/05/22 00:06:42;;;;;;;7.2;5.4;;;;;;;13.93;77.76758;934.1716;;;;
2023/05/22 00:09:11;;;;;;;8.3;5.5;;;;;;;13.88;78.07813;934.1642;;;;
2023/05/22 00:11:38;;;;;;;7.4;5.4;;;;;;;13.77;78.55469;934.1994;;;;
2023/05/22 00:14:04;;;;;;;9.5;5.7;;;;;;;13.75;78.49219;934.2268;;;;
2023/05/22 00:16:29;;;;;;;9;5.2;;;;;;;13.72;78.54492;934.2238;;;;
2023/05/22 00:18:56;;;;;;;6.4;5;;;;;;;13.78;77.83008;934.1873;;;;
2023/05/22 00:21:20;;;;;;;7.2;5.3;;;;;;;13.67;78.3418;934.2106;;;;
2023/05/22 00:23:46;;;;;;;7.1;5.3;;;;;;;13.54;78.58203;934.1443;;;;
2023/05/22 00:26:11;;;;;;;7.7;5.8;;;;;;;13.48;78.99512;934.1521;;;;
2023/05/22 00:28:38;;;;;;;7.3;5.8;;;;;;;13.35;80.05273;934.1841;;;;
2023/05/22 00:31:03;;;;;;;8.7;5.6;;;;;;;13.26;80.80566;934.2751;;;;
2023/05/22 00:33:32;;;;;;;8.4;5.7;;;;;;;13.24;80.80273;934.2536;;;;
2023/05/22 00:36:00;;;;;;;7.9;6.1;;;;;;;13.28;80.87988;934.2773;;;;
2023/05/22 00:38:25;;;;;;;8.3;6;;;;;;;13.4;80.46387;934.2452;;;;
2023/05/22 00:40:52;;;;;;;8.5;5.8;;;;;;;13.41;79.93848;934.2452;;;;
2023/05/22 00:43:17;;;;;;;7.9;5.6;;;;;;;13.34;80.10742;934.2025;;;;
2023/05/22 00:45:44;;;;;;;7.4;5.6;;;;;;;13.28;80.45508;934.1646;;;;
2023/05/22 00:48:11;;;;;;;6.7;5.1;;;;;;;13.26;80.56445;934.2103;;;;
2023/05/22 00:50:33;;;;;;;7.4;6;;;;;;;13.18;80.60742;934.0875;;;;
2023/05/22 00:53:01;;;;;;;17.1;11.6;;;;;;;13.03;81.23535;934.1633;;;;
2023/05/22 00:55:26;;;;;;;11.6;8.1;;;;;;;12.97;81.69434;934.1395;;;;
2023/05/22 00:57:52;;;;;;;7.8;5.9;;;;;;;13.01;81.43652;934.1433;;;;
2023/05/22 01:00:17;;;;;;;9;5.5;;;;;;;13.01;81.4707;934.1177;;;;
2023/05/22 01:02:47;;;;;;;6.5;5.3;;;;;;;13.04;81.23535;934.1722;;;;
2023/05/22 01:05:17;;;;;;;6.3;4.9;;;;;;;13.07;81.10352;934.243;;;;
2023/05/22 01:07:40;;;;;;;7.6;5.4;;;;;;;12.98;81.28223;934.2305;;;;
2023/05/22 01:10:14;;;;;;;8.2;5.7;;;;;;;12.93;81.59375;934.2972;;;;
2023/05/22 01:12:44;;;;;;;6.5;5.1;;;;;;;12.92;81.6377;934.2589;;;;
2023/05/22 01:15:55;;;;;;;7.9;5.6;;;;;;;12.88;81.75781;934.2815;;;;
2023/05/22 01:18:21;;;;;;;7.2;5.5;;;;;;;12.83;81.68945;934.2562;;;;
2023/05/22 01:20:47;;;;;;;8.1;5.6;;;;;;;12.79;81.90137;934.2642;;;;
2023/05/22 01:23:14;;;;;;;6.2;5.1;;;;;;;12.81;81.83594;934.3008;;;;
2023/05/22 01:25:40;;;;;;;7.3;5;;;;;;;12.75;81.73145;934.3195;;;;
2023/05/22 01:28:06;;;;;;;7.5;4.8;;;;;;;12.75;81.74316;934.3298;;;;
2023/05/22 01:30:31;;;;;;;7.3;5.6;;;;;;;12.74;81.58301;934.2732;;;;
2023/05/22 01:32:56;;;;;;;8.2;5.1;;;;;;;12.76;81.5957;934.3178;;;;
2023/05/22 01:35:21;;;;;;;6.9;5.3;;;;;;;12.76;81.51758;934.2922;;;;
2023/05/22 01:37:46;;;;;;;9.2;5.9;;;;;;;12.84;81.11719;934.3289;;;;
2023/05/22 01:40:12;;;;;;;7.9;5.7;;;;;;;12.8;81.13379;934.3416;;;;
2023/05/22 01:42:42;;;;;;;5.5;4.7;;;;;;;12.8;81.13379;934.3568;;;;
2023/05/22 01:45:20;;;;;;;6.8;5;;;;;;;12.73;81.14453;934.3867;;;;
2023/05/22 01:47:52;;;;;;;6.4;4.8;;;;;;;12.65;81.77051;934.3839;;;;
2023/05/22 01:50:18;;;;;;;6.7;5;;;;;;;12.62;81.68555;934.3329;;;;
2023/05/22 01:52:46;;;;;;;6.6;5.1;;;;;;;12.52;82.46973;934.4034;;;;
2023/05/22 01:55:17;;;;;;;7.7;5.2;;;;;;;12.54;82.07129;934.4864;;;;
2023/05/22 01:58:09;;;;;;;9.1;5.8;;;;;;;12.57;81.91602;934.4288;;;;
2023/05/22 02:00:37;;;;;;;5.6;4.8;;;;;;;12.52;81.79297;934.4425;;;;
2023/05/22 02:03:02;;;;;;;8.1;5.2;;;;;;;12.55;81.79785;934.4056;;;;
2023/05/22 02:05:28;;;;;;;7.2;5.5;;;;;;;12.58;81.51758;934.3999;;;;
2023/05/22 02:07:53;;;;;;;5.9;5;;;;;;;12.69;81.09082;934.4708;;;;
2023/05/22 02:10:18;;;;;;;7.1;5.1;;;;;;;12.78;80.57813;934.4384;;;;
2023/05/22 02:12:43;;;;;;;6.3;5;;;;;;;12.8;80.59473;934.4367;;;;
2023/05/22 02:15:15;;;;;;;8.1;5.5;;;;;;;12.74;80.7793;934.377;;;;
2023/05/22 02:17:41;;;;;;;8.2;4.9;;;;;;;12.78;80.6123;934.4336;;;;
2023/05/22 02:20:06;;;;;;;7.5;5.1;;;;;;;12.79;80.14551;934.4495;;;;
2023/05/22 02:22:30;;;;;;;7.2;4.9;;;;;;;12.64;80.49707;934.4359;;;;
2023/05/22 02:24:55;;;;;;;7.7;5.3;;;;;;;12.48;81.60059;934.4626;;;;
2023/05/22 02:27:22;;;;;;;7.3;5.7;;;;;;;12.34;82.11426;934.4613;;;;
2023/05/22 02:29:48;;;;;;;7.4;5.5;;;;;;;12.28;82.74609;934.3984;;;;
2023/05/22 02:32:16;;;;;;;7.2;5.5;;;;;;;12.48;81.99219;934.4036;;;;
2023/05/22 02:34:41;;;;;;;7;5.5;;;;;;;12.43;81.8916;934.4565;;;;
2023/05/22 02:37:10;;;;;;;7.6;5.3;;;;;;;12.53;81.57617;934.4122;;;;
2023/05/22 02:39:35;;;;;;;7.3;5.3;;;;;;;12.55;81.16699;934.4376;;;;
2023/05/22 02:42:05;;;;;;;7.3;5.1;;;;;;;12.42;81.69336;934.435;;;;
2023/05/22 02:44:34;;;;;;;7.6;5.9;;;;;;;12.43;81.85449;934.4109;;;;
2023/05/22 02:47:05;;;;;;;7.3;5.5;;;;;;;12.32;81.78809;934.4431;;;;
2023/05/22 02:49:30;;;;;;;7;5;;;;;;;12.3;81.78613;934.4359;;;;
2023/05/22 02:51:58;;;;;;;7.6;5.7;;;;;;;12.23;81.73828;934.4561;;;;
2023/05/22 02:54:23;;;;;;;7;5.2;;;;;;;12.24;81.66016;934.4537;;;;
2023/05/22 02:56:49;;;;;;;6.7;5;;;;;;;12.26;81.21777;934.4472;;;;
2023/05/22 02:59:15;;;;;;;7;4.8;;;;;;;12.25;81.40918;934.4401;;;;
2023/05/22 03:04:14;;;;;;;6.8;4.9;;;;;;;12.1;82.17285;934.4825;;;;
2023/05/22 03:06:40;;;;;;;7.3;5.2;;;;;;;12.09;82.26074;934.4833;;;;
2023/05/22 03:09:08;;;;;;;7.1;5.1;;;;;;;12.07;82.46387;934.5009;;;;
2023/05/22 03:11:33;;;;;;;7.1;5;;;;;;;12.11;82.42676;934.4378;;;;
2023/05/22 03:13:58;;;;;;;7.5;5;;;;;;;12.11;82.08301;934.4434;;;;
2023/05/22 03:16:24;;;;;;;6.7;4.8;;;;;;;12.18;81.90039;934.44;;;;
2023/05/22 03:18:53;;;;;;;6.6;4.9;;;;;;;12.22;82.05566;934.4003;;;;
2023/05/22 03:21:18;;;;;;;7.1;5.2;;;;;;;12.26;81.79102;934.4361;;;;
2023/05/22 03:23:45;;;;;;;6.5;5.2;;;;;;;12.24;81.13281;934.3755;;;;
2023/05/22 03:26:10;;;;;;;7.1;5.7;;;;;;;12.18;81.19141;934.452;;;;
2023/05/22 03:28:37;;;;;;;6.5;5;;;;;;;12.12;81.5;934.5096;;;;
2023/05/22 03:31:02;;;;;;;6.4;5.2;;;;;;;12.12;81.87695;934.5001;;;;
2023/05/22 03:34:06;;;;;;;7;5.8;;;;;;;12.08;81.74414;934.5656;;;;
2023/05/22 03:36:32;;;;;;;8.7;5.5;;;;;;;12.17;81.16504;934.5901;;;;
2023/05/22 03:38:55;;;;;;;10.2;6;;;;;;;12.1;81.31348;934.5552;;;;
2023/05/22 03:41:22;;;;;;;8.4;5.6;;;;;;;12.06;81.61426;934.5449;;;;
2023/05/22 03:43:47;;;;;;;6.6;5;;;;;;;12.03;81.4834;934.5633;;;;
2023/05/22 03:46:14;;;;;;;8.4;5.4;;;;;;;12.11;81.15332;934.5807;;;;
2023/05/22 03:48:39;;;;;;;9.8;5.8;;;;;;;12.14;81.22852;934.5894;;;;
2023/05/22 03:51:05;;;;;;;6.2;4.9;;;;;;;12.24;81.09766;934.6221;;;;
2023/05/22 03:53:30;;;;;;;6.6;4.9;;;;;;;12.2;81.14844;934.6738;;;;
2023/05/22 03:55:58;;;;;;;8.1;5.3;;;;;;;12.25;81.09766;934.6038;;;;
2023/05/22 03:58:24;;;;;;;6.1;4.4;;;;;;;12.28;80.7168;934.5502;;;;
2023/05/22 04:02:38;;;;;;;5.7;4.6;;;;;;;12.5;80.60742;934.6702;;;;
2023/05/22 04:05:02;;;;;;;6.7;5.2;;;;;;;12.54;81.30469;934.6788;;;;
2023/05/22 04:07:31;;;;;;;7.4;5.3;;;;;;;12.59;80.5791;934.6914;;;;
2023/05/22 04:09:54;;;;;;;7.1;5.3;;;;;;;12.62;80.7334;934.6677;;;;
2023/05/22 04:12:21;;;;;;;7.1;5.3;;;;;;;12.54;80.47852;934.73;;;;
2023/05/22 04:14:46;;;;;;;7.9;5.1;;;;;;;12.63;81.10156;934.7211;;;;
2023/05/22 04:17:13;;;;;;;7.8;5.6;;;;;;;12.55;80.34082;934.785;;;;
2023/05/22 04:19:38;;;;;;;7.1;5.4;;;;;;;12.4;80.48438;934.695;;;;
2023/05/22 04:22:03;;;;;;;7.1;5.1;;;;;;;12.32;81.24902;934.7305;;;;
2023/05/22 04:24:28;;;;;;;7.8;5.3;;;;;;;12.22;81.48438;934.7818;;;;
2023/05/22 04:27:38;;;;;;;6.5;4.8;;;;;;;12.45;81.34473;934.7422;;;;
2023/05/22 04:30:11;;;;;;;6.3;4.9;;;;;;;12.45;80.81543;934.791;;;;
2023/05/22 04:32:35;;;;;;;5.6;4.7;;;;;;;12.41;81.05176;934.7967;;;;
2023/05/22 04:35:02;;;;;;;5.5;4.3;;;;;;;12.43;81.47754;934.8597;;;;
2023/05/22 04:37:30;;;;;;;6.6;4.9;;;;;;;12.66;80.68359;934.8935;;;;
2023/05/22 04:39:57;;;;;;;7.2;5.4;;;;;;;12.7;80.35742;934.9277;;;;
2023/05/22 04:42:24;;;;;;;6.2;4.9;;;;;;;12.65;80.33594;934.8904;;;;
2023/05/22 04:44:56;;;;;;;6.7;5.3;;;;;;;12.65;80.80664;934.9288;;;;
2023/05/22 04:47:17;;;;;;;7;4.9;;;;;;;12.61;81.39844;934.8881;;;;
2023/05/22 04:49:44;;;;;;;6;4.7;;;;;;;12.65;81.74805;934.9144;;;;
2023/05/22 04:53:02;;;;;;;6.9;4.7;;;;;;;12.93;80.62891;934.8942;;;;
2023/05/22 04:55:22;;;;;;;7.4;5.3;;;;;;;13.11;79.99609;934.8943;;;;
2023/05/22 04:57:47;;;;;;;7.6;5.2;;;;;;;13.05;79.66504;934.9066;;;;
2023/05/22 05:00:16;;;;;;;6.6;4.9;;;;;;;12.96;80.29102;934.9372;;;;
2023/05/22 05:02:45;;;;;;;6.4;5.4;;;;;;;13;79.64355;934.9561;;;;
2023/05/22 05:05:10;;;;;;;7.3;5.1;;;;;;;13.04;79.54688;934.9115;;;;
2023/05/22 05:07:38;;;;;;;7.2;5.6;;;;;;;13.33;79.15332;934.9575;;;;
2023/05/22 05:10:03;;;;;;;6.7;5;;;;;;;14.18;77.69531;934.9781;;;;
2023/05/22 05:12:34;;;;;;;6.3;4.6;;;;;;;15.82;71.11035;934.9972;;;;
2023/05/22 05:15:02;;;;;;;6.7;4.9;;;;;;;16.98;66.12012;934.9537;;;;
2023/05/22 05:17:27;;;;;;;6.8;4.2;;;;;;;17.6;65.37695;934.9227;;;;
2023/05/22 05:19:56;;;;;;;5.3;4.2;;;;;;;18.76;61.79199;934.8851;;;;
2023/05/22 05:22:24;;;;;;;4.8;3.8;;;;;;;18.89;60.82031;934.9601;;;;
2023/05/22 05:24:51;;;;;;;5.6;4.1;;;;;;;20.08;56.13086;934.9152;;;;
2023/05/22 05:27:16;;;;;;;4.7;3.7;;;;;;;20.94;54.1582;934.8879;;;;
2023/05/22 05:29:45;;;;;;;6;3.8;;;;;;;21.18;50.43262;934.9064;;;;
2023/05/22 05:32:11;;;;;;;4.6;3.6;;;;;;;22.1;49.13086;934.872;;;;
2023/05/22 05:34:37;;;;;;;4.9;3.7;;;;;;;22.54;48.28809;934.8332;;;;
2023/05/22 05:37:02;;;;;;;5.2;3.5;;;;;;;23.55;45.87988;934.8337;;;;
2023/05/22 05:39:28;;;;;;;5;3.5;;;;;;;24.36;43.58398;934.825;;;;
2023/05/22 05:41:53;;;;;;;5.4;3.8;;;;;;;25.17;41.99805;934.7917;;;;
2023/05/22 05:44:22;;;;;;;4.2;3.5;;;;;;;25.51;42.4209;934.8107;;;;
2023/05/22 05:46:46;;;;;;;4;3.2;;;;;;;24.94;40.06641;934.8308;;;;
2023/05/22 05:49:14;;;;;;;4.3;3;;;;;;;24.77;39.625;934.7653;;;;
2023/05/22 05:51:44;;;;;;;3.8;3.4;;;;;;;24.93;41.2793;934.7978;;;;
2023/05/22 05:54:14;;;;;;;5.3;3.4;;;;;;;26.45;38.03516;934.7548;;;;
2023/05/22 05:56:44;;;;;;;5.1;3.5;;;;;;;24.77;39.20117;934.7833;;;;
2023/05/22 05:59:09;;;;;;;3.9;3.4;;;;;;;23.97;41.19141;934.8008;;;;
2023/05/22 06:01:38;;;;;;;5.3;4.8;;;;;;;23.57;42.56543;934.775;;;;
2023/05/22 06:04:04;;;;;;;4.9;3.7;;;;;;;23.2;42.70703;934.7364;;;;
2023/05/22 06:06:28;;;;;;;5.2;3.8;;;;;;;22.96;43.83496;934.7834;;;;
2023/05/22 06:08:57;;;;;;;4.2;2.8;;;;;;;23.85;42.32129;934.7734;;;;
2023/05/22 06:11:22;;;;;;;4.2;3.2;;;;;;;24.02;41.77246;934.8237;;;;
2023/05/22 06:13:47;;;;;;;3.3;3;;;;;;;24.83;40.90527;934.7924;;;;
2023/05/22 06:16:14;;;;;;;4.9;3.2;;;;;;;25.53;38.0752;934.7045;;;;
2023/05/22 06:18:39;;;;;;;3;2.6;;;;;;;26.03;36.98145;934.7981;;;;
2023/05/22 06:21:07;;;;;;;3.5;2.8;;;;;;;26.22;38.10938;934.7313;;;;
2023/05/22 06:23:32;;;;;;;3.5;3.1;;;;;;;25.32;38.10449;934.7889;;;;
2023/05/22 06:25:59;;;;;;;3.1;2.8;;;;;;;25.59;38.06738;934.8125;;;;
2023/05/22 06:31:08;;;;;;;3;2.7;;;;;;;24.43;37.56836;934.7355;;;;
2023/05/22 06:33:33;;;;;;;3.5;2.8;;;;;;;24.95;38.01367;934.7544;;;;
2023/05/22 06:36:02;;;;;;;3.6;2.6;;;;;;;25.9;37.91602;934.7252;;;;
2023/05/22 06:38:27;;;;;;;3.5;2.9;;;;;;;27.67;34.89746;934.6624;;;;
2023/05/22 06:40:54;;;;;;;3.3;2.7;;;;;;;27.88;33.69043;934.6241;;;;
2023/05/22 06:43:19;;;;;;;3.7;2.8;;;;;;;28.72;32.04004;934.6913;;;;
2023/05/22 06:45:48;;;;;;;3.7;2.7;;;;;;;28.11;33.17383;934.6561;;;;
2023/05/22 06:48:19;;;;;;;4.5;3;;;;;;;29.02;32.88379;934.6451;;;;
2023/05/22 06:50:52;;;;;;;3.4;3;;;;;;;29.06;32.98145;934.6541;;;;
2023/05/22 06:56:55;;;;;;;3;2.7;;;;;;;30.52;29.5166;934.5762;;;;
2023/05/22 06:59:20;;;;;;;3.4;2.4;;;;;;;30.11;29.47754;934.5513;;;;
2023/05/22 07:01:50;;;;;;;2.7;2.4;;;;;;;29.49;31.21289;934.5795;;;;
2023/05/22 07:04:16;;;;;;;3.3;2.9;;;;;;;30.7;31.18945;934.5687;;;;
2023/05/22 07:06:45;;;;;;;2.9;2.6;;;;;;;31.62;29.50391;934.5619;;;;
2023/05/22 07:09:07;;;;;;;3.2;2.9;;;;;;;31.63;28.83398;934.5726;;;;
2023/05/22 07:11:36;;;;;;;4.1;2.8;;;;;;;31.33;29.23438;934.565;;;;
2023/05/22 07:14:01;;;;;;;2.9;2.6;;;;;;;32.42;27.70898;934.5414;;;;
2023/05/22 07:16:28;;;;;;;3;2.7;;;;;;;33.26;26.62988;934.5644;;;;
2023/05/22 07:18:52;;;;;;;2.7;2.5;;;;;;;32.68;26.27246;934.5064;;;;
2023/05/22 07:21:17;;;;;;;3.1;2.8;;;;;;;32.55;26.90137;934.5314;;;;
2023/05/22 07:23:44;;;;;;;4.2;2.7;;;;;;;32.53;26.87598;934.5187;;;;
2023/05/22 07:26:10;;;;;;;3.5;2.9;;;;;;;31.63;27.74512;934.5432;;;;
2023/05/22 07:28:36;;;;;;;3;2.7;;;;;;;30.63;29.44043;934.4669;;;;
2023/05/22 07:31:02;;;;;;;3.1;2.8;;;;;;;33.04;28.64844;934.4958;;;;
2023/05/22 07:33:29;;;;;;;3;2.7;;;;;;;34.42;25.6748;934.4515;;;;
2023/05/22 07:35:54;;;;;;;2.6;2.4;;;;;;;34.02;25.63965;934.4941;;;;
2023/05/22 07:38:21;;;;;;;3;2.7;;;;;;;34.45;24.44727;934.4373;;;;
2023/05/22 07:40:46;;;;;;;3.9;2.5;;;;;;;33.9;25.5;934.4966;;;;
2023/05/22 07:43:17;;;;;;;3;2.7;;;;;;;33.37;25.7002;934.4467;;;;
2023/05/22 07:45:44;;;;;;;2.9;2.6;;;;;;;32.13;25.23438;934.4207;;;;
2023/05/22 07:48:10;;;;;;;2.7;2.3;;;;;;;32.8;25.0791;934.4311;;;;
2023/05/22 07:50:43;;;;;;;3.3;2.5;;;;;;;33.86;25.0293;934.3884;;;;
2023/05/22 07:53:05;;;;;;;3;2.3;;;;;;;33.9;25.18848;934.4097;;;;
2023/05/22 07:55:34;;;;;;;2.7;2.5;;;;;;;33.74;23.85547;934.3705;;;;
2023/05/22 07:58:02;;;;;;;3.4;2.4;;;;;;;32.68;26.11719;934.3058;;;;
2023/05/22 08:00:24;;;;;;;3.4;2.7;;;;;;;33.93;24.33594;934.3052;;;;
2023/05/22 08:02:49;;;;;;;2.7;2.5;;;;;;;35.01;25.10449;934.2845;;;;
2023/05/22 08:05:19;;;;;;;2.7;2.5;;;;;;;31.71;28.57617;934.2383;;;;
2023/05/22 08:07:48;;;;;;;2.7;2.5;;;;;;;32.53;27.30762;934.238;;;;
2023/05/22 08:10:15;;;;;;;3;2.5;;;;;;;33.52;26.26074;934.2217;;;;
2023/05/22 08:12:48;;;;;;;2.8;2.6;;;;;;;33.9;28.24414;934.2372;;;;
2023/05/22 08:15:19;;;;;;;2.9;2.6;;;;;;;33.26;28.43262;934.183;;;;
2023/05/22 08:17:44;;;;;;;3;2.7;;;;;;;33.42;28.78027;934.1881;;;;
2023/05/22 08:20:17;;;;;;;2.9;2.3;;;;;;;30.95;32.28223;934.1289;;;;
2023/05/22 08:22:53;;;;;;;2.6;2.4;;;;;;;30.58;31.83789;934.135;;;;
2023/05/22 08:25:19;;;;;;;2.9;2.6;;;;;;;31.27;31.13281;934.1347;;;;
2023/05/22 08:27:54;;;;;;;3.3;2.7;;;;;;;32.26;30.28906;934.134;;;;
2023/05/22 08:30:19;;;;;;;3.3;2.8;;;;;;;33.42;27.6377;934.1314;;;;
2023/05/22 08:32:55;;;;;;;2.6;2.4;;;;;;;33.23;26.06348;934.0633;;;;
2023/05/22 08:35:25;;;;;;;2.7;2.4;;;;;;;32.53;26.17969;934.123;;;;
2023/05/22 08:37:51;;;;;;;3;2.6;;;;;;;33.09;28.00195;934.0519;;;;
2023/05/22 08:40:16;;;;;;;2.8;2.6;;;;;;;35.05;24.55176;934.084;;;;
2023/05/22 08:42:43;;;;;;;3;2.7;;;;;;;34.68;26.58105;934.0988;;;;
2023/05/22 08:45:09;;;;;;;2.6;2.4;;;;;;;33.5;25.39453;934.0452;;;;
2023/05/22 08:47:44;;;;;;;4.1;2.8;;;;;;;32.8;27.38379;934.0175;;;;
2023/05/22 08:50:21;;;;;;;2.9;2.6;;;;;;;32.67;29.2959;934.0328;;;;
2023/05/22 08:52:46;;;;;;;2.6;2.4;;;;;;;33.24;27.87891;933.9867;;;;
2023/05/22 08:55:12;;;;;;;3.1;2.5;;;;;;;31.78;27.49023;933.9534;;;;
2023/05/22 08:57:43;;;;;;;3.1;2.6;;;;;;;32.29;28.44434;934.0176;;;;
2023/05/22 09:00:16;;;;;;;2.7;2.3;;;;;;;33.36;27.39355;933.9902;;;;
2023/05/22 09:02:41;;;;;;;2.5;2.3;;;;;;;34.41;25.05859;933.9827;;;;
2023/05/22 09:05:10;;;;;;;3;2.5;;;;;;;34.21;26.02344;933.9612;;;;
2023/05/22 09:07:36;;;;;;;2.6;2.4;;;;;;;33.99;25.39746;933.9575;;;;
2023/05/22 09:10:04;;;;;;;3.3;2.4;;;;;;;33.72;25.85156;933.9417;;;;
2023/05/22 09:12:25;;;;;;;2.3;2.1;;;;;;;32.92;26.2627;933.9294;;;;
2023/05/22 09:14:54;;;;;;;3.3;2.6;;;;;;;33.77;25.08398;933.9124;;;;
2023/05/22 09:17:19;;;;;;;2.4;2.2;;;;;;;32.86;26.91992;933.9044;;;;
2023/05/22 09:19:46;;;;;;;3.4;2.7;;;;;;;32.25;28.29785;933.8741;;;;
2023/05/22 09:22:11;;;;;;;2.3;2.1;;;;;;;32.65;27.14648;933.8641;;;;
2023/05/22 09:24:39;;;;;;;3.1;2.5;;;;;;;32.39;26.93945;933.8142;;;;
2023/05/22 09:27:04;;;;;;;2.6;2.4;;;;;;;31.09;30.16406;933.7872;;;;
2023/05/22 09:29:32;;;;;;;4;2.7;;;;;;;31.63;29.74414;933.8197;;;;
2023/05/22 09:31:57;;;;;;;3.5;2.9;;;;;;;31.6;27.91016;933.7441;;;;
2023/05/22 09:34:22;;;;;;;3.9;2.6;;;;;;;31.07;31.8125;933.8539;;;;
2023/05/22 09:36:52;;;;;;;3.6;2.8;;;;;;;31.53;31.03027;933.8479;;;;
2023/05/22 09:39:17;;;;;;;2.8;2.6;;;;;;;31.97;30.06543;933.8868;;;;
2023/05/22 09:41:42;;;;;;;3.1;2.8;;;;;;;31.09;29.50586;933.8622;;;;
2023/05/22 09:44:07;;;;;;;3.4;2.6;;;;;;;30.66;32.83496;933.835;;;;
2023/05/22 09:46:35;;;;;;;3;2.7;;;;;;;30.82;31.38867;933.8702;;;;
2023/05/22 09:49:00;;;;;;;3.1;2.8;;;;;;;30.46;33.37012;933.897;;;;
2023/05/22 09:51:28;;;;;;;3;2.7;;;;;;;30.15;33.62207;933.8965;;;;
2023/05/22 09:53:53;;;;;;;4.1;2.9;;;;;;;30.02;34.47168;933.8406;;;;
2023/05/22 09:56:18;;;;;;;3.1;2.8;;;;;;;29.78;31.20996;933.8699;;;;
2023/05/22 09:58:43;;;;;;;3.3;2.8;;;;;;;29.49;33.73926;933.8694;;;;
2023/05/22 10:01:09;;;;;;;3;2.7;;;;;;;29.74;32.13672;933.8406;;;;
2023/05/22 10:03:40;;;;;;;3.1;2.8;;;;;;;30.34;31.76074;933.8605;;;;
2023/05/22 10:06:06;;;;;;;4.5;3.1;;;;;;;29.48;32.65527;933.845;;;;
2023/05/22 10:08:35;;;;;;;3.6;2.7;;;;;;;30;31.37891;933.9044;;;;
2023/05/22 10:11:01;;;;;;;3.5;2.9;;;;;;;29.31;33.45313;933.7989;;;;
2023/05/22 10:13:26;;;;;;;3.3;3;;;;;;;28.83;34.55859;933.7766;;;;
2023/05/22 10:15:54;;;;;;;3;2.6;;;;;;;29.22;34.56543;933.7887;;;;
2023/05/22 10:18:19;;;;;;;3.3;2.9;;;;;;;29.96;33.87012;933.7372;;;;
2023/05/22 10:20:45;;;;;;;3.2;2.9;;;;;;;30.19;33.48145;933.6941;;;;
2023/05/22 10:23:10;;;;;;;3.6;3;;;;;;;29.75;34.30664;933.7213;;;;
2023/05/22 10:25:35;;;;;;;3.3;2.8;;;;;;;30.45;32.49707;933.7114;;;;
2023/05/22 10:28:03;;;;;;;3.3;2.9;;;;;;;30.48;32.81055;933.7551;;;;
2023/05/22 10:30:28;;;;;;;4.1;3;;;;;;;30.19;32.80176;933.7453;;;;
2023/05/22 10:32:53;;;;;;;3.7;2.7;;;;;;;30.62;32.05664;933.764;;;;
2023/05/22 10:35:20;;;;;;;3.2;2.9;;;;;;;30.75;32.54297;933.7366;;;;
2023/05/22 10:37:46;;;;;;;3.7;3;;;;;;;29.93;34.84668;933.7762;;;;
2023/05/22 10:40:16;;;;;;;3.6;3.1;;;;;;;30.38;31.70508;933.6559;;;;
2023/05/22 10:42:44;;;;;;;3.5;3.2;;;;;;;29.63;34.71582;933.695;;;;
2023/05/22 10:45:09;;;;;;;3.9;2.9;;;;;;;30.24;33.74805;933.7017;;;;
2023/05/22 10:47:38;;;;;;;3.6;3;;;;;;;30.14;33.84863;933.7205;;;;
2023/05/22 10:50:10;;;;;;;2.6;2.4;;;;;;;30.32;32.48926;933.6331;;;;
2023/05/22 10:52:38;;;;;;;2.9;2.6;;;;;;;29.87;34.20898;933.6816;;;;
2023/05/22 10:55:03;;;;;;;4;2.9;;;;;;;28.6;36.08691;933.7043;;;;
2023/05/22 10:57:33;;;;;;;3.4;3;;;;;;;28.57;39.01172;933.7035;;;;
2023/05/22 11:00:01;;;;;;;3.6;3;;;;;;;28.68;37.87891;933.676;;;;
2023/05/22 11:02:28;;;;;;;3.5;3;;;;;;;29.48;34.69238;933.6682;;;;
2023/05/22 11:04:51;;;;;;;3.8;2.7;;;;;;;29.4;36.59277;933.6445;;;;
2023/05/22 11:07:17;;;;;;;4.2;3.1;;;;;;;28.23;38.10156;933.6057;;;;
2023/05/22 11:09:46;;;;;;;4.7;3.3;;;;;;;28.33;37.99219;933.5772;;;;
2023/05/22 11:12:07;;;;;;;4;3;;;;;;;27.64;38.5752;933.5828;;;;
2023/05/22 11:14:33;;;;;;;3.7;3;;;;;;;27.75;38.77441;933.6315;;;;
2023/05/22 11:16:58;;;;;;;3.7;3.3;;;;;;;27.76;41.08984;933.634;;;;
2023/05/22 11:19:23;;;;;;;3.6;3.3;;;;;;;27.59;38.90234;933.5929;;;;
2023/05/22 11:21:51;;;;;;;4.8;3;;;;;;;28.03;38.01465;933.6208;;;;
2023/05/22 11:24:16;;;;;;;4.6;3.2;;;;;;;28.43;36.37109;933.4959;;;;
2023/05/22 11:26:44;;;;;;;3.5;3.2;;;;;;;27.85;37.39355;933.4615;;;;
2023/05/22 11:29:11;;;;;;;4.1;3.1;;;;;;;26.95;39.55859;933.4822;;;;
2023/05/22 11:31:36;;;;;;;5.2;3;;;;;;;27.3;38.47363;933.5008;;;;
2023/05/22 11:34:05;;;;;;;5.1;3.8;;;;;;;27.25;39.82227;933.4494;;;;
2023/05/22 11:36:30;;;;;;;3.6;3.1;;;;;;;26.62;41.40039;933.5112;;;;
2023/05/22 11:38:57;;;;;;;4.7;3.4;;;;;;;26.05;41.76172;933.4964;;;;
2023/05/22 11:41:22;;;;;;;3.7;3.2;;;;;;;26.42;39.07324;933.4729;;;;
2023/05/22 11:43:51;;;;;;;3.8;3.2;;;;;;;26.21;39.90723;933.3309;;;;
2023/05/22 11:46:16;;;;;;;4;3.4;;;;;;;25.52;43.81445;933.4546;;;;
2023/05/22 11:48:44;;;;;;;3.6;3.2;;;;;;;25.22;43.78516;933.416;;;;
2023/05/22 11:51:09;;;;;;;4.4;3.9;;;;;;;25.09;44.78711;933.4883;;;;
2023/05/22 11:53:36;;;;;;;4.6;3.6;;;;;;;25.37;44.08301;933.4358;;;;
2023/05/22 11:56:01;;;;;;;4.3;3.5;;;;;;;25.28;46.36523;933.4398;;;;
2023/05/22 11:58:26;;;;;;;4.6;3.2;;;;;;;25.48;44.83887;933.4436;;;;
2023/05/22 12:00:51;;;;;;;3.7;3.1;;;;;;;25.35;44.51758;933.4959;;;;
2023/05/22 12:03:18;;;;;;;4.9;3.6;;;;;;;25.28;44.13379;933.4673;;;;
2023/05/22 12:05:43;;;;;;;5.2;3.3;;;;;;;25.44;46.3584;933.4612;;;;
2023/05/22 12:08:08;;;;;;;4.3;3.7;;;;;;;25.63;43.5791;933.5175;;;;
2023/05/22 12:10:36;;;;;;;3.6;3.1;;;;;;;25.67;43.75879;933.5262;;;;
2023/05/22 12:13:01;;;;;;;6.3;3.1;;;;;;;25.1;44.69434;933.5168;;;;
2023/05/22 12:15:31;;;;;;;4.8;3.5;;;;;;;24.92;44.2168;933.508;;;;
2023/05/22 12:18:01;;;;;;;3.5;3.2;;;;;;;25.1;44.28125;933.4992;;;;
2023/05/22 12:20:26;;;;;;;3.5;3.2;;;;;;;25.31;44.7627;933.5358;;;;
2023/05/22 12:22:52;;;;;;;3.8;3.3;;;;;;;25.7;43.82129;933.5229;;;;
2023/05/22 12:25:18;;;;;;;4.1;3.5;;;;;;;26.03;42.69531;933.48;;;;
2023/05/22 12:27:43;;;;;;;3.9;3.1;;;;;;;26.02;41.7002;933.4623;;;;
2023/05/22 12:30:13;;;;;;;4;3.3;;;;;;;26.29;42.62305;933.517;;;;
2023/05/22 12:32:38;;;;;;;4.5;3.6;;;;;;;26.46;40.12988;933.4414;;;;
2023/05/22 12:35:07;;;;;;;5.2;3.5;;;;;;;26.51;41.52051;933.4709;;;;
2023/05/22 12:37:32;;;;;;;3.7;3.3;;;;;;;26.57;41.33594;933.4666;;;;
2023/05/22 12:39:57;;;;;;;3.7;3.3;;;;;;;26.6;40.32031;933.4409;;;;
2023/05/22 12:42:27;;;;;;;3.8;3.4;;;;;;;26.7;41.21875;933.4269;;;;
2023/05/22 12:44:56;;;;;;;5;3.6;;;;;;;26.68;41.91504;933.5014;;;;
2023/05/22 12:47:21;;;;;;;4.9;3.5;;;;;;;26.73;41.99121;933.4369;;;;
2023/05/22 12:49:47;;;;;;;3.7;3.4;;;;;;;26.9;40.87012;933.4435;;;;
2023/05/22 12:52:12;;;;;;;3.9;3.5;;;;;;;26.78;41.97168;933.4442;;;;
2023/05/22 12:54:40;;;;;;;3.7;3.2;;;;;;;26.62;43.78125;933.4459;;;;
2023/05/22 12:57:12;;;;;;;5;3.8;;;;;;;26.56;46.40332;933.3837;;;;
2023/05/22 12:59:37;;;;;;;3.9;3.3;;;;;;;26.5;45.22461;933.4242;;;;
2023/05/22 13:02:05;;;;;;;4.3;3.7;;;;;;;25.76;44.19434;933.3883;;;;
2023/05/22 13:04:30;;;;;;;4.2;3.5;;;;;;;25.66;45.74414;933.397;;;;
2023/05/22 13:06:57;;;;;;;7.6;4;;;;;;;25.27;46.85938;933.4306;;;;
2023/05/22 13:09:22;;;;;;;5.9;3.6;;;;;;;25.1;48.23535;933.3758;;;;
2023/05/22 13:11:49;;;;;;;4.2;3.4;;;;;;;25.49;46.78906;933.3833;;;;
2023/05/22 13:14:14;;;;;;;4.1;3.5;;;;;;;25.83;42.93457;933.3397;;;;
2023/05/22 13:16:40;;;;;;;4.8;3.5;;;;;;;25.62;47.00391;933.3041;;;;
2023/05/22 13:19:05;;;;;;;4.4;3.7;;;;;;;25.49;45.58398;933.2806;;;;
2023/05/22 13:21:33;;;;;;;4.6;3.6;;;;;;;25.52;46.5791;933.2852;;;;
2023/05/22 13:23:59;;;;;;;4.5;3.6;;;;;;;25.33;44.91895;933.2855;;;;
2023/05/22 13:26:25;;;;;;;4.1;3.6;;;;;;;25.48;47.44922;933.2586;;;;
2023/05/22 13:28:49;;;;;;;4.2;3.5;;;;;;;25.47;45.08594;933.2541;;;;
2023/05/22 13:31:19;;;;;;;4.1;3.7;;;;;;;25.51;45.94043;933.194;;;;
2023/05/22 13:33:45;;;;;;;4.2;3.7;;;;;;;25.91;44.11328;933.2349;;;;
2023/05/22 13:36:14;;;;;;;3.9;3.2;;;;;;;25.88;44.79688;933.2297;;;;
2023/05/22 13:38:39;;;;;;;4.3;3.5;;;;;;;25.66;45.17676;933.1898;;;;
2023/05/22 13:41:04;;;;;;;4.9;3.6;;;;;;;25.49;47.6748;933.2108;;;;
2023/05/22 13:43:29;;;;;;;4;3.6;;;;;;;25.53;47.41895;933.2322;;;;
2023/05/22 13:45:58;;;;;;;4.2;3.8;;;;;;;25.49;49.29297;933.2049;;;;
2023/05/22 13:48:25;;;;;;;4.1;3.4;;;;;;;25.69;48.10938;933.1933;;;;
2023/05/22 13:50:51;;;;;;;4.1;3.5;;;;;;;25.96;48.15137;933.1451;;;;
2023/05/22 13:53:19;;;;;;;3.9;3.5;;;;;;;26.27;47.40234;933.1443;;;;
2023/05/22 13:55:44;;;;;;;4;3.6;;;;;;;26.6;44.0166;933.1597;;;;
2023/05/22 13:58:14;;;;;;;4;3.5;;;;;;;26.65;47.52734;933.1046;;;;
2023/05/22 14:00:41;;;;;;;5.1;3.8;;;;;;;26.95;43.18555;933.0733;;;;
2023/05/22 14:03:07;;;;;;;4.8;3.3;;;;;;;26.82;44.81934;932.9561;;;;
2023/05/22 14:05:36;;;;;;;4.3;3.3;;;;;;;26.79;43.57227;933.0034;;;;
2023/05/22 14:08:01;;;;;;;4.2;3.5;;;;;;;26.11;46.81836;932.9821;;;;
2023/05/22 14:10:28;;;;;;;5.7;3.8;;;;;;;25.72;44.08301;932.9703;;;;
2023/05/22 14:12:53;;;;;;;4.7;3.5;;;;;;;25.83;44.86328;932.9832;;;;
2023/05/22 14:15:21;;;;;;;4.1;3.6;;;;;;;26.32;44.16602;932.9048;;;;
2023/05/22 14:17:46;;;;;;;4.5;3.4;;;;;;;25.98;47.69141;932.9291;;;;
2023/05/22 14:20:16;;;;;;;4.5;3.8;;;;;;;26.02;45.37793;932.8458;;;;
2023/05/22 14:22:45;;;;;;;4.3;3.5;;;;;;;26.2;46.68555;932.8711;;;;
2023/05/22 14:25:10;;;;;;;4.3;3.8;;;;;;;26.4;46.13867;932.8597;;;;
2023/05/22 14:27:40;;;;;;;5;3.6;;;;;;;26.71;43.50488;932.8555;;;;
2023/05/22 14:30:05;;;;;;;4.7;3.5;;;;;;;26.82;42.65137;932.7952;;;;
2023/05/22 14:32:30;;;;;;;3.8;3.3;;;;;;;26.6;43.4707;932.8228;;;;
2023/05/22 14:34:58;;;;;;;3.8;3.4;;;;;;;26.72;44.63086;932.8459;;;;
2023/05/22 14:37:23;;;;;;;834.6;115.9;;;;;;;26.84;46.63281;932.8583;;;;